Time;durP1;ratioP1;P1;durP2;ratioP2;P2;SDS_P1;SDS_P2;PMS_P1;PMS_P2;Temp;Humidity;BMP_temperature;BMP_pressure;BME280_temperature;BME280_humidity;BME280_pressure;Samples;Min_cycle;Max_cycle;Signal;HPM_P1;HPM_P2
2023/01/23 00:00:51;;;;;;;;;;;6.20;99.90;;;;;;5052555;28;20309;-71
2023/01/23 00:03:17;;;;;;;;;;;6.20;99.90;;;;;;5054018;28;19911;-72
2023/01/23 00:05:43;;;;;;;;;;;6.20;99.90;;;;;;5054332;28;19916;-72
2023/01/23 00:08:09;;;;;;;;;;;6.20;99.90;;;;;;5053714;28;20313;-73
2023/01/23 00:10:38;;;;;;;;;;;6.20;99.90;;;;;;5053722;28;20071;-72
2023/01/23 00:13:04;;;;;;;;;;;6.30;99.90;;;;;;5053882;28;19904;-72
2023/01/23 00:15:32;;;;;;;;;;;6.30;99.90;;;;;;5052499;28;19979;-71
2023/01/23 00:17:58;;;;;;;;;;;6.30;99.90;;;;;;5054085;28;19905;-71
2023/01/23 00:20:23;;;;;;;;;;;6.40;99.90;;;;;;5053728;28;19904;-72
2023/01/23 00:22:49;;;;;;;;;;;6.40;99.90;;;;;;5053563;28;19912;-72
2023/01/23 00:25:15;;;;;;;;;;;6.50;99.90;;;;;;5053933;28;19935;-69
2023/01/23 00:27:41;;;;;;;;;;;6.50;99.90;;;;;;5053523;28;19940;-71
2023/01/23 00:30:07;;;;;;;;;;;6.50;99.90;;;;;;5053503;28;19938;-72
2023/01/23 00:32:33;;;;;;;;;;;6.50;99.90;;;;;;5053362;28;20015;-72
2023/01/23 00:34:59;;;;;;;;;;;6.50;99.90;;;;;;5053491;28;19948;-72
2023/01/23 00:37:25;;;;;;;;;;;6.50;99.90;;;;;;5053307;28;19905;-72
2023/01/23 00:39:51;;;;;;;;;;;6.40;99.90;;;;;;5053603;28;20041;-72
2023/01/23 00:42:17;;;;;;;;;;;6.40;99.90;;;;;;5054082;28;19972;-72
2023/01/23 00:44:42;;;;;;;;;;;6.40;99.90;;;;;;5053281;28;19913;-68
2023/01/23 00:47:08;;;;;;;;;;;6.40;99.90;;;;;;5053381;28;19924;-71
2023/01/23 00:49:34;;;;;;;;;;;6.40;99.90;;;;;;5053167;28;19911;-71
2023/01/23 00:52:00;;;;;;;;;;;6.40;99.90;;;;;;5052377;28;19912;-71
2023/01/23 00:54:26;;;;;;;;;;;6.40;99.90;;;;;;5052828;28;20345;-72
2023/01/23 00:56:51;;;;;;;;;;;6.40;99.90;;;;;;5053079;28;19956;-72
2023/01/23 00:59:17;;;;;;;;;;;6.40;99.90;;;;;;5051869;28;20019;-72
2023/01/23 01:01:43;;;;;;;;;;;6.40;99.90;;;;;;5053394;28;19909;-72
2023/01/23 01:04:09;;;;;;;;;;;6.40;99.90;;;;;;5052977;28;19904;-69
2023/01/23 01:06:35;;;;;;;;;;;6.40;99.90;;;;;;5052740;28;19913;-71
2023/01/23 01:09:01;;;;;;;;;;;6.40;99.90;;;;;;5053262;28;20316;-72
2023/01/23 01:11:27;;;;;;;;;;;6.40;99.90;;;;;;5052785;28;19916;-71
2023/01/23 01:13:53;;;;;;;;;;;6.40;99.90;;;;;;5053033;28;20018;-72
2023/01/23 01:16:19;;;;;;;;;;;6.30;99.90;;;;;;5052955;28;19955;-72
2023/01/23 01:18:45;;;;;;;;;;;6.30;99.90;;;;;;5052583;28;19905;-71
2023/01/23 01:21:12;;;;;;;;;;;6.30;99.90;;;;;;5052400;28;19905;-72
2023/01/23 01:23:38;;;;;;;;;;;6.30;99.90;;;;;;5052445;28;20003;-72
2023/01/23 01:26:04;;;;;;;;;;;6.30;99.90;;;;;;5052594;28;20057;-71
2023/01/23 01:28:32;;;;;;;;;;;6.30;99.90;;;;;;5052387;28;19909;-70
2023/01/23 01:31:01;;;;;;;;;;;6.30;99.90;;;;;;5052580;28;20003;-71
2023/01/23 01:33:27;;;;;;;;;;;6.20;99.90;;;;;;5052061;28;19939;-71
2023/01/23 01:35:55;;;;;;;;;;;6.20;99.90;;;;;;5052449;28;20344;-70
2023/01/23 01:38:21;;;;;;;;;;;6.20;99.90;;;;;;5052121;28;19966;-71
2023/01/23 01:40:47;;;;;;;;;;;6.20;99.90;;;;;;5052219;28;19977;-72
2023/01/23 01:43:18;;;;;;;;;;;6.20;99.90;;;;;;5052224;28;19911;-72
2023/01/23 01:46:02;;;;;;;;;;;6.20;99.90;;;;;;5051756;28;19939;-71
2023/01/23 01:48:32;;;;;;;;;;;6.20;99.90;;;;;;5050514;28;19905;-71
2023/01/23 01:50:59;;;;;;;;;;;6.20;99.90;;;;;;5052110;28;20073;-71
2023/01/23 01:53:26;;;;;;;;;;;6.20;99.90;;;;;;5051867;28;19904;-72
2023/01/23 01:55:52;;;;;;;;;;;6.20;99.90;;;;;;5051740;28;19904;-72
2023/01/23 01:58:18;;;;;;;;;;;6.40;99.90;;;;;;5050337;28;19954;-72
2023/01/23 02:00:44;;;;;;;;;;;6.30;99.90;;;;;;5051716;28;19904;-72
2023/01/23 02:03:10;;;;;;;;;;;6.40;99.90;;;;;;5056131;28;19915;-72
2023/01/23 02:05:38;;;;;;;;;;;6.40;99.90;;;;;;5071396;28;19938;-72
2023/01/23 02:08:08;;;;;;;;;;;6.50;99.90;;;;;;5071402;28;19996;-72
2023/01/23 02:10:35;;;;;;;;;;;6.60;99.90;;;;;;5071401;28;19919;-71
2023/01/23 02:13:19;;;;;;;;;;;6.70;99.90;;;;;;5071310;28;20364;-71
2023/01/23 02:15:45;;;;;;;;;;;6.80;99.90;;;;;;5071353;28;19963;-72
2023/01/23 02:18:11;;;;;;;;;;;6.90;99.90;;;;;;5071719;28;19911;-71
2023/01/23 02:20:38;;;;;;;;;;;6.80;99.90;;;;;;5071379;28;20027;-69
2023/01/23 02:23:09;;;;;;;;;;;6.00;99.90;;;;;;5071257;28;19904;-72
2023/01/23 02:25:44;;;;;;;;;;;5.80;99.90;;;;;;5071590;28;19919;-71
2023/01/23 02:28:11;;;;;;;;;;;5.70;99.90;;;;;;5071200;28;19910;-72
2023/01/23 02:30:38;;;;;;;;;;;5.70;99.90;;;;;;5071096;28;19970;-71
2023/01/23 02:33:30;;;;;;;;;;;5.70;99.90;;;;;;5058574;28;19923;-71
2023/01/23 02:36:00;;;;;;;;;;;5.60;99.90;;;;;;5050931;28;19958;-72
2023/01/23 02:38:30;;;;;;;;;;;5.70;99.90;;;;;;5051166;28;19904;-71
2023/01/23 02:40:57;;;;;;;;;;;5.70;99.90;;;;;;5051036;28;19905;-72
2023/01/23 02:43:24;;;;;;;;;;;5.60;99.90;;;;;;5051639;28;19908;-71
2023/01/23 02:45:52;;;;;;;;;;;5.60;99.90;;;;;;5050857;28;20371;-70
2023/01/23 02:48:18;;;;;;;;;;;5.70;99.90;;;;;;5051043;28;19908;-72
2023/01/23 02:50:45;;;;;;;;;;;5.70;99.90;;;;;;5049514;28;20318;-71
2023/01/23 02:53:11;;;;;;;;;;;5.70;99.90;;;;;;5050823;28;19909;-71
2023/01/23 02:55:41;;;;;;;;;;;5.70;99.90;;;;;;5051151;28;19905;-71
2023/01/23 03:00:51;;;;;;;;;;;5.80;99.90;;;;;;5050690;28;20248;-70
2023/01/23 03:03:17;;;;;;;;;;;5.80;99.90;;;;;;5050888;28;19905;-72
2023/01/23 03:05:43;;;;;;;;;;;5.70;99.90;;;;;;5050553;28;19917;-71
2023/01/23 03:08:09;;;;;;;;;;;5.60;99.90;;;;;;5050616;28;20003;-71
2023/01/23 03:10:35;;;;;;;;;;;5.60;99.90;;;;;;5050676;28;19943;-71
2023/01/23 03:13:02;;;;;;;;;;;5.40;99.90;;;;;;5050553;28;19909;-69
2023/01/23 03:15:29;;;;;;;;;;;5.30;99.90;;;;;;5052595;28;19950;-70
2023/01/23 03:17:56;;;;;;;;;;;5.20;99.90;;;;;;5054460;28;19991;-70
2023/01/23 03:20:22;;;;;;;;;;;5.30;99.90;;;;;;5052774;28;19905;-71
2023/01/23 03:22:48;;;;;;;;;;;5.30;99.90;;;;;;5054200;28;19905;-71
2023/01/23 03:25:15;;;;;;;;;;;5.40;99.90;;;;;;5054442;28;19916;-70
2023/01/23 03:27:40;;;;;;;;;;;5.50;99.90;;;;;;5054203;28;20421;-70
2023/01/23 03:30:12;;;;;;;;;;;5.60;99.90;;;;;;5054035;28;19996;-71
2023/01/23 03:32:38;;;;;;;;;;;5.50;99.90;;;;;;5052609;28;19967;-71
2023/01/23 03:35:05;;;;;;;;;;;5.60;99.90;;;;;;5054611;28;20029;-72
2023/01/23 03:37:31;;;;;;;;;;;5.60;99.90;;;;;;5054155;28;19928;-70
2023/01/23 03:42:42;;;;;;;;;;;5.60;99.90;;;;;;5054115;28;19912;-70
2023/01/23 03:45:08;;;;;;;;;;;5.60;99.90;;;;;;5053922;28;19934;-71
2023/01/23 03:47:34;;;;;;;;;;;5.60;99.90;;;;;;5053774;28;19985;-71
2023/01/23 03:50:00;;;;;;;;;;;5.70;99.90;;;;;;5053850;28;19970;-72
2023/01/23 03:52:25;;;;;;;;;;;5.80;99.90;;;;;;5053242;28;20042;-71
2023/01/23 03:54:51;;;;;;;;;;;5.80;99.90;;;;;;5052214;28;19928;-71
2023/01/23 03:57:17;;;;;;;;;;;6.00;99.90;;;;;;5054030;28;20319;-71
2023/01/23 03:59:43;;;;;;;;;;;6.00;99.90;;;;;;5054317;28;20015;-71
2023/01/23 04:02:09;;;;;;;;;;;6.10;99.90;;;;;;5054438;28;20241;-71
2023/01/23 04:04:35;;;;;;;;;;;6.10;99.90;;;;;;5054222;28;19959;-72
2023/01/23 04:07:03;;;;;;;;;;;6.20;99.90;;;;;;5054349;28;19913;-71
2023/01/23 04:09:30;;;;;;;;;;;6.30;99.90;;;;;;5054300;28;19951;-72
2023/01/23 04:11:56;;;;;;;;;;;6.30;99.90;;;;;;5054538;28;19909;-71
2023/01/23 04:14:23;;;;;;;;;;;6.40;99.90;;;;;;5052766;28;19909;-71
2023/01/23 04:16:49;;;;;;;;;;;6.50;99.90;;;;;;5054484;28;19904;-70
2023/01/23 04:19:18;;;;;;;;;;;6.60;99.90;;;;;;5052921;28;19904;-73
2023/01/23 04:21:44;;;;;;;;;;;6.60;99.90;;;;;;5054059;28;19962;-72
2023/01/23 04:24:10;;;;;;;;;;;6.70;99.90;;;;;;5055027;28;19932;-73
2023/01/23 04:26:37;;;;;;;;;;;6.70;99.90;;;;;;5053527;28;20394;-72
2023/01/23 04:29:03;;;;;;;;;;;6.50;99.90;;;;;;5055281;28;19905;-71
2023/01/23 04:31:30;;;;;;;;;;;6.40;99.90;;;;;;5055110;28;20243;-72
2023/01/23 04:33:57;;;;;;;;;;;6.30;99.90;;;;;;5074011;28;19916;-72
2023/01/23 04:36:22;;;;;;;;;;;6.50;99.90;;;;;;5074980;28;19904;-72
2023/01/23 04:38:48;;;;;;;;;;;6.50;99.90;;;;;;5073368;28;20275;-73
2023/01/23 04:41:18;;;;;;;;;;;6.60;99.90;;;;;;5074887;28;19904;-72
2023/01/23 04:43:44;;;;;;;;;;;6.60;99.90;;;;;;5074284;28;19904;-72
2023/01/23 04:46:11;;;;;;;;;;;6.70;99.90;;;;;;5074656;28;20333;-72
2023/01/23 04:48:37;;;;;;;;;;;6.70;99.90;;;;;;5056325;28;20348;-72
2023/01/23 04:51:03;;;;;;;;;;;6.50;99.90;;;;;;5074492;28;19904;-72
2023/01/23 04:53:28;;;;;;;;;;;6.50;99.90;;;;;;5074027;28;20002;-71
2023/01/23 04:55:55;;;;;;;;;;;6.50;99.90;;;;;;5074180;28;19912;-71
2023/01/23 04:58:21;;;;;;;;;;;6.60;99.90;;;;;;5074008;28;19908;-71
2023/01/23 05:00:49;;;;;;;;;;;6.60;99.90;;;;;;5074569;28;19904;-71
2023/01/23 05:03:16;;;;;;;;;;;6.60;99.90;;;;;;5074206;28;19908;-72
2023/01/23 05:05:43;;;;;;;;;;;6.70;99.90;;;;;;5073964;28;19916;-69
2023/01/23 05:08:12;;;;;;;;;;;6.70;99.90;;;;;;5056210;28;20054;-72
2023/01/23 05:10:38;;;;;;;;;;;6.70;99.90;;;;;;5055527;28;20343;-72
2023/01/23 05:13:04;;;;;;;;;;;6.60;99.90;;;;;;5074409;28;19905;-72
2023/01/23 05:15:30;;;;;;;;;;;6.60;99.90;;;;;;5073743;28;19904;-72
2023/01/23 05:17:56;;;;;;;;;;;6.60;99.90;;;;;;5074674;28;19971;-72
2023/01/23 05:20:24;;;;;;;;;;;6.60;99.90;;;;;;5075257;28;19923;-72
2023/01/23 05:22:53;;;;;;;;;;;6.50;99.90;;;;;;5074592;28;19912;-72
2023/01/23 05:25:20;;;;;;;;;;;6.50;99.90;;;;;;5074669;28;19908;-73
2023/01/23 05:27:46;;;;;;;;;;;6.40;99.90;;;;;;5074879;28;19904;-72
2023/01/23 05:30:11;;;;;;;;;;;6.40;99.90;;;;;;5074569;28;19905;-72
2023/01/23 05:32:37;;;;;;;;;;;6.40;99.90;;;;;;5074497;28;19923;-73
2023/01/23 05:35:03;;;;;;;;;;;6.40;99.90;;;;;;5074495;28;19911;-72
2023/01/23 05:37:29;;;;;;;;;;;6.40;99.90;;;;;;5074041;28;20439;-73
2023/01/23 05:39:55;;;;;;;;;;;6.30;99.90;;;;;;5074933;28;19996;-72
2023/01/23 05:42:21;;;;;;;;;;;6.20;99.90;;;;;;5074227;28;20379;-72
2023/01/23 05:44:47;;;;;;;;;;;6.20;99.90;;;;;;5064321;28;19904;-74
2023/01/23 05:47:13;;;;;;;;;;;6.20;99.90;;;;;;5054774;28;20058;-72
2023/01/23 05:49:39;;;;;;;;;;;6.30;99.90;;;;;;5054088;28;19912;-72
2023/01/23 05:52:05;;;;;;;;;;;6.30;99.90;;;;;;5054256;28;20121;-72
2023/01/23 05:54:32;;;;;;;;;;;6.30;99.90;;;;;;5054557;28;19962;-71
2023/01/23 05:56:57;;;;;;;;;;;6.20;99.90;;;;;;5054229;28;19916;-72
2023/01/23 05:59:23;;;;;;;;;;;6.30;99.90;;;;;;5054153;28;19905;-72
2023/01/23 06:01:50;;;;;;;;;;;6.30;99.90;;;;;;5053798;28;19905;-72
2023/01/23 06:04:16;;;;;;;;;;;6.40;99.90;;;;;;5053618;28;19904;-73
2023/01/23 06:06:42;;;;;;;;;;;6.40;99.90;;;;;;5053527;28;19919;-72
2023/01/23 06:09:08;;;;;;;;;;;6.40;99.90;;;;;;5053528;28;19905;-72
2023/01/23 06:11:34;;;;;;;;;;;6.40;99.90;;;;;;5053955;28;20296;-72
2023/01/23 06:14:00;;;;;;;;;;;6.40;99.90;;;;;;5053538;28;20357;-72
2023/01/23 06:16:26;;;;;;;;;;;6.50;99.90;;;;;;5053545;28;19904;-71
2023/01/23 06:18:52;;;;;;;;;;;6.40;99.90;;;;;;5053748;28;19911;-72
2023/01/23 06:21:18;;;;;;;;;;;6.50;99.90;;;;;;5053669;28;20287;-73
2023/01/23 06:23:44;;;;;;;;;;;6.60;99.90;;;;;;5053178;28;19955;-72
2023/01/23 06:26:10;;;;;;;;;;;6.50;99.90;;;;;;5052993;28;19986;-72
2023/01/23 06:28:36;;;;;;;;;;;6.50;99.90;;;;;;5053646;28;20391;-73
2023/01/23 06:31:03;;;;;;;;;;;6.50;99.90;;;;;;5053349;28;19951;-70
2023/01/23 06:33:29;;;;;;;;;;;6.60;99.90;;;;;;5052309;28;19917;-72
2023/01/23 06:35:59;;;;;;;;;;;6.60;99.90;;;;;;5053189;28;19905;-73
2023/01/23 06:38:26;;;;;;;;;;;6.60;99.90;;;;;;5052469;28;20264;-73
2023/01/23 06:40:52;;;;;;;;;;;6.60;99.90;;;;;;5052736;28;19950;-72
2023/01/23 06:43:18;;;;;;;;;;;6.60;99.90;;;;;;5052488;28;19904;-71
2023/01/23 06:45:45;;;;;;;;;;;6.60;99.90;;;;;;5052353;28;19955;-72
2023/01/23 06:48:11;;;;;;;;;;;6.70;99.90;;;;;;5052756;28;20272;-71
2023/01/23 06:50:38;;;;;;;;;;;6.70;99.90;;;;;;5054770;28;19905;-73
2023/01/23 06:53:04;;;;;;;;;;;6.80;99.90;;;;;;5056091;28;20340;-72
2023/01/23 06:55:30;;;;;;;;;;;6.80;99.90;;;;;;5056276;28;19912;-72
2023/01/23 06:57:56;;;;;;;;;;;6.80;99.90;;;;;;5056893;28;19958;-72
2023/01/23 07:00:22;;;;;;;;;;;7.00;99.90;;;;;;5056060;28;19908;-72
2023/01/23 07:02:48;;;;;;;;;;;7.10;99.90;;;;;;5056179;28;19905;-72
2023/01/23 07:05:14;;;;;;;;;;;7.20;99.90;;;;;;5055973;28;19930;-72
2023/01/23 07:07:40;;;;;;;;;;;7.30;99.90;;;;;;5055674;28;20319;-74
2023/01/23 07:10:06;;;;;;;;;;;7.30;99.90;;;;;;5056084;28;19962;-72
2023/01/23 07:12:32;;;;;;;;;;;7.40;99.90;;;;;;5055949;28;19954;-73
2023/01/23 07:14:58;;;;;;;;;;;7.50;99.90;;;;;;5055846;28;19996;-72
2023/01/23 07:17:24;;;;;;;;;;;7.60;99.90;;;;;;5056101;28;19983;-73
2023/01/23 07:19:50;;;;;;;;;;;7.60;99.90;;;;;;5056785;28;20000;-75
2023/01/23 07:22:17;;;;;;;;;;;7.80;99.90;;;;;;5056538;28;19970;-74
2023/01/23 07:24:43;;;;;;;;;;;8.10;99.90;;;;;;5056454;28;19909;-72
2023/01/23 07:27:09;;;;;;;;;;;8.20;99.90;;;;;;5056868;28;19981;-74
2023/01/23 07:29:34;;;;;;;;;;;8.30;99.90;;;;;;5057173;28;19909;-71
2023/01/23 07:32:00;;;;;;;;;;;8.30;99.90;;;;;;5059301;28;19916;-72
2023/01/23 07:34:26;;;;;;;;;;;8.20;99.90;;;;;;5076477;28;20559;-72
2023/01/23 07:36:52;;;;;;;;;;;8.10;99.90;;;;;;5076000;28;19946;-70
2023/01/23 07:39:18;;;;;;;;;;;8.00;99.90;;;;;;5075625;28;19909;-71
2023/01/23 07:41:45;;;;;;;;;;;8.20;99.90;;;;;;5075931;28;19920;-70
2023/01/23 07:44:16;;;;;;;;;;;8.50;99.90;;;;;;5076297;28;19909;-71
2023/01/23 07:46:42;;;;;;;;;;;8.70;99.90;;;;;;5075982;28;19916;-69
2023/01/23 07:49:08;;;;;;;;;;;8.70;99.90;;;;;;5075973;28;19905;-72
2023/01/23 07:51:34;;;;;;;;;;;9.10;99.90;;;;;;5076227;28;19912;-71
2023/01/23 07:54:00;;;;;;;;;;;9.80;99.90;;;;;;5075841;28;20352;-70
2023/01/23 07:56:26;;;;;;;;;;;10.70;99.90;;;;;;5075904;28;19911;-72
2023/01/23 07:58:52;;;;;;;;;;;11.20;99.90;;;;;;5075943;28;19915;-72
2023/01/23 08:01:18;;;;;;;;;;;11.50;99.90;;;;;;5075598;28;19905;-68
2023/01/23 08:03:45;;;;;;;;;;;11.60;99.90;;;;;;5075542;28;20356;-73
2023/01/23 08:06:11;;;;;;;;;;;11.40;99.90;;;;;;5076002;28;19999;-73
2023/01/23 08:08:37;;;;;;;;;;;11.40;99.90;;;;;;5075528;28;20462;-73
2023/01/23 08:11:04;;;;;;;;;;;11.00;99.90;;;;;;5075544;28;19904;-73
2023/01/23 08:13:29;;;;;;;;;;;10.50;99.90;;;;;;5075587;28;19904;-74
2023/01/23 08:16:02;;;;;;;;;;;10.40;99.90;;;;;;5075466;28;20378;-73
2023/01/23 08:18:28;;;;;;;;;;;10.10;99.90;;;;;;5075552;28;19905;-73
2023/01/23 08:20:54;;;;;;;;;;;9.60;99.90;;;;;;5075490;28;19904;-74
2023/01/23 08:23:23;;;;;;;;;;;9.40;99.90;;;;;;5075477;28;19911;-72
2023/01/23 08:25:54;;;;;;;;;;;9.30;99.90;;;;;;5075209;28;19912;-70
2023/01/23 08:28:20;;;;;;;;;;;9.40;99.90;;;;;;5075187;28;19958;-72
2023/01/23 08:30:46;;;;;;;;;;;9.30;99.90;;;;;;5075815;28;19904;-74
2023/01/23 08:33:12;;;;;;;;;;;9.10;99.90;;;;;;5075065;28;20292;-73
2023/01/23 08:35:39;;;;;;;;;;;9.00;99.90;;;;;;5075038;28;20007;-74
2023/01/23 08:38:07;;;;;;;;;;;9.00;99.90;;;;;;5074924;28;19904;-74
2023/01/23 08:40:36;;;;;;;;;;;9.10;99.90;;;;;;5074690;28;20007;-70
2023/01/23 08:43:02;;;;;;;;;;;9.50;99.90;;;;;;5075279;28;20316;-69
2023/01/23 08:45:30;;;;;;;;;;;10.10;99.90;;;;;;5074903;28;19948;-76
2023/01/23 08:47:56;;;;;;;;;;;10.60;99.90;;;;;;5074876;28;19912;-71
2023/01/23 08:50:22;;;;;;;;;;;11.10;99.90;;;;;;5074827;28;19905;-70
2023/01/23 08:52:48;;;;;;;;;;;11.50;99.90;;;;;;5074710;28;19949;-71
2023/01/23 08:55:14;;;;;;;;;;;11.50;99.90;;;;;;5075055;28;20352;-69
2023/01/23 08:57:40;;;;;;;;;;;11.40;99.90;;;;;;5075239;28;19911;-68
2023/01/23 09:00:10;;;;;;;;;;;11.00;99.90;;;;;;5074880;28;19955;-69
2023/01/23 09:02:36;;;;;;;;;;;10.60;99.90;;;;;;5075006;28;20232;-68
2023/01/23 09:05:02;;;;;;;;;;;10.50;99.90;;;;;;5075119;28;19923;-69
2023/01/23 09:07:28;;;;;;;;;;;10.00;99.90;;;;;;5074973;28;19908;-70
2023/01/23 09:09:53;;;;;;;;;;;9.60;99.90;;;;;;5056743;28;19908;-71
2023/01/23 09:12:19;;;;;;;;;;;9.60;99.90;;;;;;5055835;28;19911;-69
2023/01/23 09:14:46;;;;;;;;;;;9.80;99.90;;;;;;5074742;28;19904;-69
2023/01/23 09:17:11;;;;;;;;;;;10.30;99.90;;;;;;5072737;28;19908;-68
2023/01/23 09:19:37;;;;;;;;;;;10.70;99.90;;;;;;5074773;28;19904;-70
2023/01/23 09:22:03;;;;;;;;;;;11.20;99.90;;;;;;5073676;28;20249;-69
2023/01/23 09:24:29;;;;;;;;;;;11.40;99.90;;;;;;5073115;28;19966;-69
2023/01/23 09:26:55;;;;;;;;;;;11.20;99.90;;;;;;5073440;28;20280;-69
2023/01/23 09:29:21;;;;;;;;;;;11.70;99.90;;;;;;5072595;28;20335;-69
2023/01/23 09:31:48;;;;;;;;;;;11.90;99.90;;;;;;5072288;28;20295;-70
2023/01/23 09:34:14;;;;;;;;;;;12.10;99.90;;;;;;5072740;28;20237;-70
2023/01/23 09:36:40;;;;;;;;;;;12.50;99.90;;;;;;5072553;28;19916;-69
2023/01/23 09:39:05;;;;;;;;;;;12.70;99.90;;;;;;5072751;28;19950;-69
2023/01/23 09:41:31;;;;;;;;;;;12.80;99.90;;;;;;5072555;28;19916;-69
2023/01/23 09:44:01;;;;;;;;;;;12.90;99.90;;;;;;5072338;28;19904;-69
2023/01/23 09:46:47;;;;;;;;;;;13.00;99.90;;;;;;5072025;28;19920;-69
2023/01/23 09:49:18;;;;;;;;;;;13.00;99.90;;;;;;5061601;28;19910;-70
2023/01/23 09:52:01;;;;;;;;;;;12.90;99.90;;;;;;5072914;28;19908;-70
2023/01/23 09:54:27;;;;;;;;;;;12.30;99.90;;;;;;5072022;28;20013;-70
2023/01/23 09:56:54;;;;;;;;;;;12.10;99.90;;;;;;5072588;28;19962;-71
2023/01/23 09:59:37;;;;;;;;;;;11.90;99.90;;;;;;5072445;28;20016;-71
2023/01/23 10:02:10;;;;;;;;;;;11.80;99.90;;;;;;5072424;28;19930;-70
2023/01/23 10:04:36;;;;;;;;;;;11.60;99.90;;;;;;5072700;28;19904;-69
2023/01/23 10:07:02;;;;;;;;;;;11.40;99.90;;;;;;5072376;28;20287;-70
2023/01/23 10:09:46;;;;;;;;;;;11.30;99.90;;;;;;5072234;28;19905;-70
2023/01/23 10:12:21;;;;;;;;;;;11.10;99.90;;;;;;5072560;28;19950;-69
2023/01/23 10:15:02;;;;;;;;;;;11.20;99.90;;;;;;5072126;28;19912;-71
2023/01/23 10:17:31;;;;;;;;;;;11.50;99.90;;;;;;5071919;28;20275;-72
2023/01/23 10:20:00;;;;;;;;;;;11.80;99.90;;;;;;5053755;28;19904;-73
2023/01/23 10:22:27;;;;;;;;;;;11.90;99.90;;;;;;5072016;28;19916;-72
2023/01/23 10:24:54;;;;;;;;;;;12.30;99.90;;;;;;5070851;28;19904;-72
2023/01/23 10:27:21;;;;;;;;;;;12.40;99.90;;;;;;5072182;28;20033;-69
2023/01/23 10:29:58;;;;;;;;;;;12.70;99.90;;;;;;5054276;28;19987;-71
2023/01/23 10:32:25;;;;;;;;;;;12.90;99.90;;;;;;5071818;28;20402;-71
2023/01/23 10:34:56;;;;;;;;;;;13.10;99.90;;;;;;5071909;28;20385;-71
2023/01/23 10:37:40;;;;;;;;;;;13.10;99.90;;;;;;5071709;28;19908;-70
2023/01/23 10:40:10;;;;;;;;;;;13.30;99.90;;;;;;5053621;28;19904;-71
2023/01/23 10:42:35;;;;;;;;;;;13.50;99.90;;;;;;5071963;28;20081;-71
2023/01/23 10:45:01;;;;;;;;;;;13.50;99.90;;;;;;5071721;28;20006;-71
2023/01/23 10:47:34;;;;;;;;;;;13.20;99.90;;;;;;5072388;28;19920;-71
2023/01/23 10:49:59;;;;;;;;;;;13.30;99.90;;;;;;5072038;28;19965;-71
2023/01/23 10:52:30;;;;;;;;;;;13.20;99.90;;;;;;5071533;28;20283;-70
2023/01/23 10:54:58;;;;;;;;;;;13.20;99.90;;;;;;5071393;28;20417;-70
2023/01/23 10:57:33;;;;;;;;;;;13.30;99.90;;;;;;5071640;28;19912;-71
2023/01/23 11:00:17;;;;;;;;;;;13.00;99.90;;;;;;5071463;28;19905;-68
2023/01/23 11:02:43;;;;;;;;;;;12.80;99.90;;;;;;5071595;28;19904;-70
2023/01/23 11:05:32;;;;;;;;;;;12.70;99.90;;;;;;5070994;28;20049;-70
2023/01/23 11:07:58;;;;;;;;;;;12.70;99.90;;;;;;5059784;28;19999;-70
2023/01/23 11:10:24;;;;;;;;;;;12.70;99.90;;;;;;5071489;28;19974;-71
2023/01/23 11:12:51;;;;;;;;;;;12.90;99.90;;;;;;5071295;28;19904;-71
2023/01/23 11:15:27;;;;;;;;;;;12.90;99.90;;;;;;5071259;28;19904;-70
2023/01/23 11:17:57;;;;;;;;;;;12.70;99.90;;;;;;5071834;28;19908;-69
2023/01/23 11:20:36;;;;;;;;;;;12.60;99.90;;;;;;5071385;28;19995;-70
2023/01/23 11:23:04;;;;;;;;;;;12.70;99.90;;;;;;5071866;28;20001;-70
2023/01/23 11:25:31;;;;;;;;;;;12.80;99.90;;;;;;5072426;28;20268;-70
2023/01/23 11:27:58;;;;;;;;;;;12.80;99.90;;;;;;5072283;28;19904;-70
2023/01/23 11:30:36;;;;;;;;;;;12.90;99.90;;;;;;5053988;28;19911;-70
2023/01/23 11:33:13;;;;;;;;;;;13.00;99.90;;;;;;5071971;28;20041;-68
2023/01/23 11:35:39;;;;;;;;;;;13.30;99.90;;;;;;5072570;28;19904;-70
2023/01/23 11:38:06;;;;;;;;;;;13.70;99.90;;;;;;5076254;28;20413;-70
2023/01/23 11:40:32;;;;;;;;;;;13.70;99.90;;;;;;5076186;28;19908;-69
2023/01/23 11:42:58;;;;;;;;;;;14.10;99.90;;;;;;5075834;28;20270;-71
2023/01/23 11:45:36;;;;;;;;;;;14.50;99.90;;;;;;5070543;28;19915;-71
2023/01/23 11:48:20;;;;;;;;;;;14.70;99.90;;;;;;5055483;28;20380;-71
2023/01/23 11:50:52;;;;;;;;;;;14.80;99.90;;;;;;5055198;28;19999;-71
2023/01/23 11:53:30;;;;;;;;;;;14.70;99.90;;;;;;5054885;28;20318;-69
2023/01/23 11:55:56;;;;;;;;;;;14.60;99.90;;;;;;5055853;28;19991;-71
2023/01/23 11:58:40;;;;;;;;;;;14.70;99.90;;;;;;5055478;28;19948;-70
2023/01/23 12:01:21;;;;;;;;;;;14.60;99.90;;;;;;5055519;28;20005;-70
2023/01/23 12:03:59;;;;;;;;;;;14.40;99.90;;;;;;5036213;28;19908;-70
2023/01/23 12:06:25;;;;;;;;;;;14.20;99.90;;;;;;5055293;28;20343;-70
2023/01/23 12:08:54;;;;;;;;;;;14.00;99.90;;;;;;5036850;28;19912;-70
2023/01/23 12:11:21;;;;;;;;;;;14.00;99.90;;;;;;5055242;28;19905;-70
2023/01/23 12:13:49;;;;;;;;;;;13.90;99.90;;;;;;5056800;28;19905;-69
2023/01/23 12:16:35;;;;;;;;;;;13.90;99.90;;;;;;5074185;28;19958;-70
2023/01/23 12:19:08;;;;;;;;;;;13.90;99.90;;;;;;5049663;28;20014;-69
2023/01/23 12:21:39;;;;;;;;;;;13.70;99.90;;;;;;5075101;28;20029;-70
2023/01/23 12:24:17;;;;;;;;;;;13.90;99.90;;;;;;5074663;28;19908;-70
2023/01/23 12:26:57;;;;;;;;;;;14.20;99.90;;;;;;5056644;28;19934;-70
2023/01/23 12:29:23;;;;;;;;;;;14.50;99.90;;;;;;5074695;28;19930;-69
2023/01/23 12:32:07;;;;;;;;;;;14.80;99.90;;;;;;5072621;28;19938;-71
2023/01/23 12:34:47;;;;;;;;;;;14.60;99.90;;;;;;5067752;28;20383;-70
2023/01/23 12:37:18;;;;;;;;;;;14.40;99.90;;;;;;5074726;28;19908;-70
2023/01/23 12:40:06;;;;;;;;;;;14.10;99.90;;;;;;5074791;28;19905;-71
2023/01/23 12:42:31;;;;;;;;;;;14.00;99.90;;;;;;5054176;28;19905;-71
2023/01/23 12:45:01;;;;;;;;;;;14.30;99.90;;;;;;5075270;28;19904;-71
2023/01/23 12:47:34;;;;;;;;;;;14.50;99.90;;;;;;5073407;28;20044;-70
2023/01/23 12:50:01;;;;;;;;;;;14.90;99.90;;;;;;5074639;28;19926;-71
2023/01/23 12:52:40;;;;;;;;;;;14.90;99.90;;;;;;5073830;28;19904;-69
2023/01/23 12:55:15;;;;;;;;;;;14.90;99.90;;;;;;5073642;28;19904;-70
2023/01/23 12:57:50;;;;;;;;;;;14.70;99.90;;;;;;5074227;28;19904;-72
2023/01/23 13:00:34;;;;;;;;;;;14.30;99.90;;;;;;5073665;28;19904;-71
2023/01/23 13:03:12;;;;;;;;;;;14.40;99.90;;;;;;5073753;28;20301;-71
2023/01/23 13:05:46;;;;;;;;;;;14.40;99.90;;;;;;5055977;28;20283;-71
2023/01/23 13:08:22;;;;;;;;;;;14.40;99.90;;;;;;5074394;28;20260;-71
2023/01/23 13:13:51;;;;;;;;;;;14.20;99.90;;;;;;5074166;28;19958;-71
2023/01/23 13:16:18;;;;;;;;;;;14.20;99.90;;;;;;5074164;28;19904;-71
2023/01/23 13:27:29;;;;;;;;;;;14.20;99.90;;;;;;5074330;28;20256;-69
2023/01/23 13:29:57;;;;;;;;;;;14.50;99.90;;;;;;5074887;28;20340;-70
2023/01/23 13:32:27;;;;;;;;;;;14.40;99.90;;;;;;5067880;28;19924;-71
2023/01/23 13:34:53;;;;;;;;;;;13.90;99.90;;;;;;5054198;28;19923;-70
2023/01/23 13:37:40;;;;;;;;;;;14.10;99.90;;;;;;5054211;28;19905;-71
2023/01/23 13:40:20;;;;;;;;;;;14.10;99.90;;;;;;5042990;28;19905;-70
2023/01/23 13:42:47;;;;;;;;;;;14.10;99.90;;;;;;5054034;28;19912;-70
2023/01/23 13:46:14;;;;;;;;;;;;;;;;;;;;;
2023/01/23 13:51:43;;;;;;;;;;;14.30;99.90;;;;;;5033804;28;19912;-65
2023/01/23 13:57:07;;;;;;;;;;;14.10;99.90;;;;;;5053750;28;19912;-69
2023/01/23 13:59:38;;;;;;;;;;;14.20;99.90;;;;;;5053705;28;19905;-70
2023/01/23 14:05:19;;;;;;;;;;;13.90;99.90;;;;;;5051311;28;20407;-69
2023/01/23 14:07:45;;;;;;;;;;;13.60;99.90;;;;;;5053835;28;19927;-70
2023/01/23 14:10:16;;;;;;;;;;;13.50;99.90;;;;;;5053092;28;20413;-69
2023/01/23 14:12:41;;;;;;;;;;;13.30;99.90;;;;;;5053745;28;19904;-67
2023/01/23 14:18:12;;;;;;;;;;;13.10;99.90;;;;;;5053662;28;20399;-70
2023/01/23 14:20:38;;;;;;;;;;;13.00;99.90;;;;;;5053884;28;20340;-70
2023/01/23 14:23:19;;;;;;;;;;;13.00;99.90;;;;;;5051739;28;20007;-71
2023/01/23 14:25:47;;;;;;;;;;;12.90;99.90;;;;;;5051691;28;20284;-66
2023/01/23 14:28:17;;;;;;;;;;;12.70;99.90;;;;;;5050491;28;19951;-71
2023/01/23 14:30:53;;;;;;;;;;;12.60;99.90;;;;;;5053931;28;19909;-68
2023/01/23 14:33:21;;;;;;;;;;;12.60;99.90;;;;;;5067143;28;19917;-71
2023/01/23 14:35:47;;;;;;;;;;;12.60;99.90;;;;;;5073460;28;20269;-70
2023/01/23 14:38:19;;;;;;;;;;;12.60;99.90;;;;;;5073203;28;20406;-70
2023/01/23 14:40:45;;;;;;;;;;;12.70;99.90;;;;;;5089308;28;20061;-71
2023/01/23 14:43:15;;;;;;;;;;;12.80;99.90;;;;;;5073373;28;19961;-71
2023/01/23 14:45:44;;;;;;;;;;;12.90;99.90;;;;;;5073171;28;20383;-69
2023/01/23 14:48:14;;;;;;;;;;;12.80;99.90;;;;;;5073008;28;19904;-71
2023/01/23 14:50:40;;;;;;;;;;;12.90;99.90;;;;;;5054792;28;19905;-71
2023/01/23 14:53:10;;;;;;;;;;;12.70;99.90;;;;;;5054281;28;20022;-71
2023/01/23 14:55:39;;;;;;;;;;;12.70;99.90;;;;;;5073065;28;19904;-70
2023/01/23 14:58:04;;;;;;;;;;;12.50;99.90;;;;;;5072668;28;19966;-70
2023/01/23 15:00:30;;;;;;;;;;;12.50;99.90;;;;;;5072922;28;19904;-70
2023/01/23 15:02:56;;;;;;;;;;;12.30;99.90;;;;;;5054642;28;19905;-69